sensor_id;sensor_type;location;lat;lon;timestamp;P1;durP1;ratioP1;P2;durP2;ratioP2
50225;SDS011;36113;50.742;6.432;2023-07-31T00:00:28;7.00;;;2.97;;
50225;SDS011;36113;50.742;6.432;2023-07-31T00:02:54;4.87;;;2.70;;
50225;SDS011;36113;50.742;6.432;2023-07-31T00:05:19;6.00;;;2.50;;
50225;SDS011;36113;50.742;6.432;2023-07-31T00:07:45;4.47;;;2.80;;
50225;SDS011;36113;50.742;6.432;2023-07-31T00:10:10;4.73;;;2.87;;
50225;SDS011;36113;50.742;6.432;2023-07-31T00:12:35;3.60;;;2.53;;
50225;SDS011;36113;50.742;6.432;2023-07-31T00:15:01;5.33;;;2.37;;
50225;SDS011;36113;50.742;6.432;2023-07-31T00:17:27;5.55;;;3.53;;
50225;SDS011;36113;50.742;6.432;2023-07-31T00:19:53;4.43;;;2.43;;
50225;SDS011;36113;50.742;6.432;2023-07-31T00:22:18;6.90;;;2.67;;
50225;SDS011;36113;50.742;6.432;2023-07-31T00:24:43;10.70;;;3.03;;
50225;SDS011;36113;50.742;6.432;2023-07-31T00:27:08;4.47;;;2.60;;
50225;SDS011;36113;50.742;6.432;2023-07-31T00:29:34;5.70;;;2.83;;
50225;SDS011;36113;50.742;6.432;2023-07-31T00:31:59;3.00;;;2.70;;
50225;SDS011;36113;50.742;6.432;2023-07-31T00:34:24;6.03;;;2.73;;
50225;SDS011;36113;50.742;6.432;2023-07-31T00:36:50;4.80;;;2.60;;
50225;SDS011;36113;50.742;6.432;2023-07-31T00:39:15;4.07;;;2.60;;
50225;SDS011;36113;50.742;6.432;2023-07-31T00:41:40;4.73;;;3.03;;
50225;SDS011;36113;50.742;6.432;2023-07-31T00:44:05;4.07;;;3.20;;
50225;SDS011;36113;50.742;6.432;2023-07-31T00:46:31;4.97;;;2.50;;
50225;SDS011;36113;50.742;6.432;2023-07-31T00:48:56;5.37;;;2.43;;
50225;SDS011;36113;50.742;6.432;2023-07-31T00:51:22;3.77;;;2.40;;
50225;SDS011;36113;50.742;6.432;2023-07-31T00:53:47;5.77;;;2.33;;
50225;SDS011;36113;50.742;6.432;2023-07-31T00:56:13;5.73;;;2.73;;
50225;SDS011;36113;50.742;6.432;2023-07-31T00:58:38;5.27;;;2.37;;
50225;SDS011;36113;50.742;6.432;2023-07-31T01:01:04;4.40;;;2.43;;
50225;SDS011;36113;50.742;6.432;2023-07-31T01:03:29;5.47;;;2.50;;
50225;SDS011;36113;50.742;6.432;2023-07-31T01:05:58;7.17;;;2.70;;
50225;SDS011;36113;50.742;6.432;2023-07-31T01:11:27;5.88;;;2.70;;
50225;SDS011;36113;50.742;6.432;2023-07-31T01:13:57;4.55;;;2.85;;
50225;SDS011;36113;50.742;6.432;2023-07-31T01:16:24;5.35;;;2.83;;
50225;SDS011;36113;50.742;6.432;2023-07-31T01:18:51;4.13;;;3.00;;
50225;SDS011;36113;50.742;6.432;2023-07-31T01:21:29;5.57;;;2.83;;
50225;SDS011;36113;50.742;6.432;2023-07-31T01:26:58;6.88;;;3.20;;
50225;SDS011;36113;50.742;6.432;2023-07-31T01:32:35;9.57;;;3.25;;
50225;SDS011;36113;50.742;6.432;2023-07-31T01:35:04;6.55;;;3.63;;
50225;SDS011;36113;50.742;6.432;2023-07-31T01:37:29;5.77;;;3.13;;
50225;SDS011;36113;50.742;6.432;2023-07-31T01:39:55;3.53;;;3.23;;
50225;SDS011;36113;50.742;6.432;2023-07-31T01:42:20;7.07;;;3.13;;
50225;SDS011;36113;50.742;6.432;2023-07-31T01:44:45;5.97;;;3.20;;
50225;SDS011;36113;50.742;6.432;2023-07-31T01:47:11;7.07;;;3.27;;
50225;SDS011;36113;50.742;6.432;2023-07-31T01:49:36;7.47;;;3.37;;
50225;SDS011;36113;50.742;6.432;2023-07-31T01:52:01;6.90;;;3.40;;
50225;SDS011;36113;50.742;6.432;2023-07-31T01:54:27;5.97;;;3.43;;
50225;SDS011;36113;50.742;6.432;2023-07-31T01:56:52;7.07;;;2.90;;
50225;SDS011;36113;50.742;6.432;2023-07-31T01:59:17;5.63;;;3.60;;
50225;SDS011;36113;50.742;6.432;2023-07-31T02:01:43;6.83;;;3.17;;
50225;SDS011;36113;50.742;6.432;2023-07-31T02:04:08;5.50;;;2.90;;
50225;SDS011;36113;50.742;6.432;2023-07-31T02:06:33;5.97;;;3.10;;
50225;SDS011;36113;50.742;6.432;2023-07-31T02:08:58;7.83;;;3.30;;
50225;SDS011;36113;50.742;6.432;2023-07-31T02:11:24;5.27;;;2.80;;
50225;SDS011;36113;50.742;6.432;2023-07-31T02:13:49;8.47;;;4.00;;
50225;SDS011;36113;50.742;6.432;2023-07-31T02:16:14;7.40;;;3.80;;
50225;SDS011;36113;50.742;6.432;2023-07-31T02:18:40;4.97;;;3.07;;
50225;SDS011;36113;50.742;6.432;2023-07-31T02:21:05;5.80;;;3.80;;
50225;SDS011;36113;50.742;6.432;2023-07-31T02:23:30;6.57;;;3.40;;
50225;SDS011;36113;50.742;6.432;2023-07-31T02:25:55;7.90;;;3.60;;
50225;SDS011;36113;50.742;6.432;2023-07-31T02:28:21;4.07;;;3.43;;
50225;SDS011;36113;50.742;6.432;2023-07-31T02:30:46;6.03;;;3.60;;
50225;SDS011;36113;50.742;6.432;2023-07-31T02:33:11;6.37;;;3.30;;
50225;SDS011;36113;50.742;6.432;2023-07-31T02:35:37;6.10;;;3.43;;
50225;SDS011;36113;50.742;6.432;2023-07-31T02:38:02;6.50;;;3.40;;
50225;SDS011;36113;50.742;6.432;2023-07-31T02:40:27;6.30;;;3.47;;
50225;SDS011;36113;50.742;6.432;2023-07-31T02:42:53;10.97;;;3.33;;
50225;SDS011;36113;50.742;6.432;2023-07-31T02:45:18;6.13;;;3.87;;
50225;SDS011;36113;50.742;6.432;2023-07-31T02:47:43;5.43;;;3.10;;
50225;SDS011;36113;50.742;6.432;2023-07-31T02:50:09;10.53;;;3.70;;
50225;SDS011;36113;50.742;6.432;2023-07-31T02:52:34;8.20;;;3.60;;
50225;SDS011;36113;50.742;6.432;2023-07-31T02:55:00;6.50;;;3.93;;
50225;SDS011;36113;50.742;6.432;2023-07-31T02:57:25;10.23;;;3.87;;
50225;SDS011;36113;50.742;6.432;2023-07-31T02:59:50;8.03;;;3.60;;
50225;SDS011;36113;50.742;6.432;2023-07-31T03:02:15;7.27;;;4.13;;
50225;SDS011;36113;50.742;6.432;2023-07-31T03:04:41;8.63;;;4.23;;
50225;SDS011;36113;50.742;6.432;2023-07-31T03:07:06;8.10;;;3.27;;
50225;SDS011;36113;50.742;6.432;2023-07-31T03:09:31;6.83;;;3.63;;
50225;SDS011;36113;50.742;6.432;2023-07-31T03:11:57;7.47;;;3.90;;
50225;SDS011;36113;50.742;6.432;2023-07-31T03:14:22;6.90;;;4.00;;
50225;SDS011;36113;50.742;6.432;2023-07-31T03:16:47;9.83;;;4.03;;
50225;SDS011;36113;50.742;6.432;2023-07-31T03:19:13;6.57;;;4.50;;
50225;SDS011;36113;50.742;6.432;2023-07-31T03:21:38;7.33;;;4.13;;
50225;SDS011;36113;50.742;6.432;2023-07-31T03:24:04;6.20;;;3.97;;
50225;SDS011;36113;50.742;6.432;2023-07-31T03:26:30;6.93;;;3.77;;
50225;SDS011;36113;50.742;6.432;2023-07-31T03:28:56;7.47;;;3.92;;
50225;SDS011;36113;50.742;6.432;2023-07-31T03:31:22;6.40;;;3.70;;
50225;SDS011;36113;50.742;6.432;2023-07-31T03:33:47;12.30;;;4.03;;
50225;SDS011;36113;50.742;6.432;2023-07-31T03:36:12;6.43;;;4.03;;
50225;SDS011;36113;50.742;6.432;2023-07-31T03:38:38;7.70;;;4.10;;
50225;SDS011;36113;50.742;6.432;2023-07-31T03:41:03;10.60;;;3.93;;
50225;SDS011;36113;50.742;6.432;2023-07-31T03:43:30;4.07;;;3.30;;
50225;SDS011;36113;50.742;6.432;2023-07-31T03:45:55;11.23;;;4.37;;
50225;SDS011;36113;50.742;6.432;2023-07-31T03:48:21;5.33;;;3.40;;
50225;SDS011;36113;50.742;6.432;2023-07-31T03:50:46;7.83;;;3.40;;
50225;SDS011;36113;50.742;6.432;2023-07-31T03:53:11;6.70;;;4.03;;
50225;SDS011;36113;50.742;6.432;2023-07-31T03:55:37;5.30;;;3.53;;
50225;SDS011;36113;50.742;6.432;2023-07-31T03:58:02;8.00;;;3.03;;
50225;SDS011;36113;50.742;6.432;2023-07-31T04:00:27;8.07;;;3.97;;
50225;SDS011;36113;50.742;6.432;2023-07-31T04:02:53;7.03;;;3.47;;
50225;SDS011;36113;50.742;6.432;2023-07-31T04:05:18;4.47;;;3.50;;
50225;SDS011;36113;50.742;6.432;2023-07-31T04:07:43;3.77;;;3.23;;
50225;SDS011;36113;50.742;6.432;2023-07-31T04:10:09;4.53;;;3.80;;
50225;SDS011;36113;50.742;6.432;2023-07-31T04:12:34;7.23;;;3.93;;
50225;SDS011;36113;50.742;6.432;2023-07-31T04:14:59;4.83;;;3.53;;
50225;SDS011;36113;50.742;6.432;2023-07-31T04:17:25;6.77;;;3.70;;
50225;SDS011;36113;50.742;6.432;2023-07-31T04:19:50;7.70;;;3.83;;
50225;SDS011;36113;50.742;6.432;2023-07-31T04:22:15;5.40;;;3.97;;
50225;SDS011;36113;50.742;6.432;2023-07-31T04:24:41;12.83;;;4.07;;
50225;SDS011;36113;50.742;6.432;2023-07-31T04:27:06;5.57;;;4.27;;
50225;SDS011;36113;50.742;6.432;2023-07-31T04:29:31;6.90;;;3.33;;
50225;SDS011;36113;50.742;6.432;2023-07-31T04:31:57;8.30;;;3.90;;
50225;SDS011;36113;50.742;6.432;2023-07-31T04:34:22;4.57;;;3.20;;
50225;SDS011;36113;50.742;6.432;2023-07-31T04:36:47;5.97;;;3.73;;
50225;SDS011;36113;50.742;6.432;2023-07-31T04:39:12;7.77;;;3.53;;
50225;SDS011;36113;50.742;6.432;2023-07-31T04:41:38;4.57;;;3.63;;
50225;SDS011;36113;50.742;6.432;2023-07-31T04:44:03;8.30;;;3.27;;
50225;SDS011;36113;50.742;6.432;2023-07-31T04:46:29;4.93;;;3.77;;
50225;SDS011;36113;50.742;6.432;2023-07-31T04:48:54;4.83;;;3.77;;
50225;SDS011;36113;50.742;6.432;2023-07-31T04:51:20;6.07;;;3.47;;
50225;SDS011;36113;50.742;6.432;2023-07-31T04:53:46;4.30;;;3.42;;
50225;SDS011;36113;50.742;6.432;2023-07-31T04:56:11;6.70;;;2.97;;
50225;SDS011;36113;50.742;6.432;2023-07-31T04:58:36;5.13;;;3.10;;
50225;SDS011;36113;50.742;6.432;2023-07-31T05:01:02;3.83;;;3.07;;
50225;SDS011;36113;50.742;6.432;2023-07-31T05:03:27;6.40;;;3.13;;
50225;SDS011;36113;50.742;6.432;2023-07-31T05:05:52;4.40;;;3.30;;
50225;SDS011;36113;50.742;6.432;2023-07-31T05:08:17;4.70;;;3.57;;
50225;SDS011;36113;50.742;6.432;2023-07-31T05:10:43;10.57;;;3.73;;
50225;SDS011;36113;50.742;6.432;2023-07-31T05:13:08;4.67;;;3.30;;
50225;SDS011;36113;50.742;6.432;2023-07-31T05:15:34;6.90;;;3.53;;
50225;SDS011;36113;50.742;6.432;2023-07-31T05:17:59;5.60;;;3.07;;
50225;SDS011;36113;50.742;6.432;2023-07-31T05:20:24;6.00;;;3.67;;
50225;SDS011;36113;50.742;6.432;2023-07-31T05:22:50;5.57;;;2.73;;
50225;SDS011;36113;50.742;6.432;2023-07-31T05:25:15;5.07;;;3.47;;
50225;SDS011;36113;50.742;6.432;2023-07-31T05:27:41;5.80;;;3.10;;
50225;SDS011;36113;50.742;6.432;2023-07-31T05:30:06;5.87;;;3.43;;
50225;SDS011;36113;50.742;6.432;2023-07-31T05:32:32;8.70;;;3.77;;
50225;SDS011;36113;50.742;6.432;2023-07-31T05:34:58;4.50;;;3.60;;
50225;SDS011;36113;50.742;6.432;2023-07-31T05:37:23;7.57;;;3.70;;
50225;SDS011;36113;50.742;6.432;2023-07-31T05:39:49;4.40;;;3.20;;
50225;SDS011;36113;50.742;6.432;2023-07-31T05:42:14;6.20;;;3.07;;
50225;SDS011;36113;50.742;6.432;2023-07-31T05:44:40;11.23;;;3.83;;
50225;SDS011;36113;50.742;6.432;2023-07-31T05:47:05;7.30;;;3.50;;
50225;SDS011;36113;50.742;6.432;2023-07-31T05:49:30;7.37;;;3.30;;
50225;SDS011;36113;50.742;6.432;2023-07-31T05:51:56;5.17;;;3.53;;
50225;SDS011;36113;50.742;6.432;2023-07-31T05:54:21;7.03;;;3.70;;
50225;SDS011;36113;50.742;6.432;2023-07-31T05:56:47;5.53;;;2.90;;
50225;SDS011;36113;50.742;6.432;2023-07-31T05:59:12;4.57;;;3.20;;
50225;SDS011;36113;50.742;6.432;2023-07-31T06:01:38;6.95;;;3.65;;
50225;SDS011;36113;50.742;6.432;2023-07-31T06:04:04;10.13;;;3.43;;
50225;SDS011;36113;50.742;6.432;2023-07-31T06:06:29;4.33;;;3.00;;
50225;SDS011;36113;50.742;6.432;2023-07-31T06:08:54;4.27;;;3.07;;
50225;SDS011;36113;50.742;6.432;2023-07-31T06:11:20;6.43;;;3.07;;
50225;SDS011;36113;50.742;6.432;2023-07-31T06:13:46;7.30;;;3.67;;
50225;SDS011;36113;50.742;6.432;2023-07-31T06:16:13;7.72;;;3.35;;
50225;SDS011;36113;50.742;6.432;2023-07-31T06:18:39;4.43;;;3.10;;
50225;SDS011;36113;50.742;6.432;2023-07-31T06:21:04;3.73;;;2.70;;
50225;SDS011;36113;50.742;6.432;2023-07-31T06:23:30;4.73;;;2.83;;
50225;SDS011;36113;50.742;6.432;2023-07-31T06:25:55;4.73;;;3.10;;
50225;SDS011;36113;50.742;6.432;2023-07-31T06:28:20;5.80;;;3.27;;
50225;SDS011;36113;50.742;6.432;2023-07-31T06:30:46;5.00;;;3.00;;
50225;SDS011;36113;50.742;6.432;2023-07-31T06:33:12;3.90;;;3.10;;
50225;SDS011;36113;50.742;6.432;2023-07-31T06:35:37;4.33;;;3.00;;
50225;SDS011;36113;50.742;6.432;2023-07-31T06:38:03;4.50;;;3.43;;
50225;SDS011;36113;50.742;6.432;2023-07-31T06:40:28;6.30;;;2.90;;
50225;SDS011;36113;50.742;6.432;2023-07-31T06:42:54;5.65;;;3.00;;
50225;SDS011;36113;50.742;6.432;2023-07-31T06:45:19;5.70;;;2.63;;
50225;SDS011;36113;50.742;6.432;2023-07-31T06:47:45;5.97;;;2.83;;
50225;SDS011;36113;50.742;6.432;2023-07-31T06:50:11;6.17;;;3.03;;
50225;SDS011;36113;50.742;6.432;2023-07-31T06:52:36;7.13;;;3.20;;
50225;SDS011;36113;50.742;6.432;2023-07-31T06:55:02;5.13;;;2.47;;
50225;SDS011;36113;50.742;6.432;2023-07-31T06:57:44;2.88;;;2.58;;
50225;SDS011;36113;50.742;6.432;2023-07-31T07:00:09;6.73;;;3.10;;
50225;SDS011;36113;50.742;6.432;2023-07-31T07:02:35;3.73;;;2.53;;
50225;SDS011;36113;50.742;6.432;2023-07-31T07:05:00;3.07;;;2.70;;
50225;SDS011;36113;50.742;6.432;2023-07-31T07:07:26;4.37;;;2.63;;
50225;SDS011;36113;50.742;6.432;2023-07-31T07:09:51;6.57;;;3.03;;
50225;SDS011;36113;50.742;6.432;2023-07-31T07:12:16;5.93;;;3.23;;
50225;SDS011;36113;50.742;6.432;2023-07-31T07:14:42;6.13;;;2.50;;
50225;SDS011;36113;50.742;6.432;2023-07-31T07:17:07;4.83;;;3.00;;
50225;SDS011;36113;50.742;6.432;2023-07-31T07:19:32;7.73;;;2.53;;
50225;SDS011;36113;50.742;6.432;2023-07-31T07:21:58;2.97;;;2.27;;
50225;SDS011;36113;50.742;6.432;2023-07-31T07:24:26;3.13;;;2.47;;
50225;SDS011;36113;50.742;6.432;2023-07-31T07:26:51;3.87;;;2.47;;
50225;SDS011;36113;50.742;6.432;2023-07-31T07:29:16;4.73;;;2.07;;
50225;SDS011;36113;50.742;6.432;2023-07-31T07:31:42;3.77;;;2.23;;
50225;SDS011;36113;50.742;6.432;2023-07-31T07:34:07;3.90;;;2.40;;
50225;SDS011;36113;50.742;6.432;2023-07-31T07:36:32;3.87;;;2.30;;
50225;SDS011;36113;50.742;6.432;2023-07-31T07:38:58;4.90;;;2.10;;
50225;SDS011;36113;50.742;6.432;2023-07-31T07:41:23;3.43;;;2.10;;
50225;SDS011;36113;50.742;6.432;2023-07-31T07:43:48;3.53;;;1.97;;
50225;SDS011;36113;50.742;6.432;2023-07-31T07:46:14;7.17;;;2.80;;
50225;SDS011;36113;50.742;6.432;2023-07-31T07:48:39;4.37;;;2.17;;
50225;SDS011;36113;50.742;6.432;2023-07-31T07:51:04;3.10;;;1.77;;
50225;SDS011;36113;50.742;6.432;2023-07-31T07:53:30;5.53;;;2.40;;
50225;SDS011;36113;50.742;6.432;2023-07-31T07:55:55;3.27;;;2.30;;
50225;SDS011;36113;50.742;6.432;2023-07-31T07:58:20;2.83;;;2.17;;
50225;SDS011;36113;50.742;6.432;2023-07-31T08:00:50;2.63;;;1.97;;
50225;SDS011;36113;50.742;6.432;2023-07-31T08:03:15;5.10;;;2.28;;
50225;SDS011;36113;50.742;6.432;2023-07-31T08:05:42;2.83;;;2.20;;
50225;SDS011;36113;50.742;6.432;2023-07-31T08:08:07;3.13;;;1.90;;
50225;SDS011;36113;50.742;6.432;2023-07-31T08:10:32;5.07;;;1.90;;
50225;SDS011;36113;50.742;6.432;2023-07-31T08:12:58;2.90;;;2.27;;
50225;SDS011;36113;50.742;6.432;2023-07-31T08:15:23;3.93;;;2.27;;
50225;SDS011;36113;50.742;6.432;2023-07-31T08:17:49;2.57;;;2.10;;
50225;SDS011;36113;50.742;6.432;2023-07-31T08:20:14;2.80;;;1.87;;
50225;SDS011;36113;50.742;6.432;2023-07-31T08:22:39;3.83;;;2.10;;
50225;SDS011;36113;50.742;6.432;2023-07-31T08:25:05;2.10;;;1.90;;
50225;SDS011;36113;50.742;6.432;2023-07-31T08:27:31;3.90;;;2.00;;
50225;SDS011;36113;50.742;6.432;2023-07-31T08:29:57;3.20;;;2.03;;
50225;SDS011;36113;50.742;6.432;2023-07-31T08:32:22;3.23;;;1.67;;
50225;SDS011;36113;50.742;6.432;2023-07-31T08:34:48;3.00;;;1.93;;
50225;SDS011;36113;50.742;6.432;2023-07-31T08:37:14;5.07;;;2.13;;
50225;SDS011;36113;50.742;6.432;2023-07-31T08:39:39;5.77;;;2.30;;
50225;SDS011;36113;50.742;6.432;2023-07-31T08:42:07;3.03;;;1.90;;
50225;SDS011;36113;50.742;6.432;2023-07-31T08:44:34;4.05;;;2.25;;
50225;SDS011;36113;50.742;6.432;2023-07-31T08:47:00;3.80;;;1.83;;
50225;SDS011;36113;50.742;6.432;2023-07-31T08:49:26;5.35;;;1.95;;
50225;SDS011;36113;50.742;6.432;2023-07-31T08:51:52;5.68;;;2.17;;
50225;SDS011;36113;50.742;6.432;2023-07-31T08:54:19;2.15;;;1.90;;
50225;SDS011;36113;50.742;6.432;2023-07-31T08:56:45;2.15;;;1.95;;
50225;SDS011;36113;50.742;6.432;2023-07-31T08:59:11;3.05;;;1.88;;
50225;SDS011;36113;50.742;6.432;2023-07-31T09:01:40;3.78;;;2.03;;
50225;SDS011;36113;50.742;6.432;2023-07-31T09:04:11;1.98;;;1.88;;
50225;SDS011;36113;50.742;6.432;2023-07-31T09:06:39;3.55;;;2.03;;
50225;SDS011;36113;50.742;6.432;2023-07-31T09:09:05;3.25;;;1.67;;
50225;SDS011;36113;50.742;6.432;2023-07-31T09:11:31;1.97;;;1.77;;
50225;SDS011;36113;50.742;6.432;2023-07-31T09:13:57;3.67;;;2.20;;
50225;SDS011;36113;50.742;6.432;2023-07-31T09:16:27;3.28;;;2.13;;
50225;SDS011;36113;50.742;6.432;2023-07-31T09:18:58;3.35;;;2.33;;
50225;SDS011;36113;50.742;6.432;2023-07-31T09:21:26;2.47;;;2.20;;
50225;SDS011;36113;50.742;6.432;2023-07-31T09:23:52;5.05;;;2.03;;
50225;SDS011;36113;50.742;6.432;2023-07-31T09:26:36;2.83;;;1.95;;
50225;SDS011;36113;50.742;6.432;2023-07-31T09:29:05;2.05;;;1.90;;
50225;SDS011;36113;50.742;6.432;2023-07-31T09:31:33;4.30;;;1.98;;
50225;SDS011;36113;50.742;6.432;2023-07-31T09:34:04;2.08;;;1.85;;
50225;SDS011;36113;50.742;6.432;2023-07-31T09:36:29;3.60;;;2.07;;
50225;SDS011;36113;50.742;6.432;2023-07-31T09:39:01;3.25;;;2.15;;
50225;SDS011;36113;50.742;6.432;2023-07-31T09:41:28;4.80;;;2.35;;
50225;SDS011;36113;50.742;6.432;2023-07-31T09:43:54;4.33;;;2.47;;
50225;SDS011;36113;50.742;6.432;2023-07-31T09:46:20;3.30;;;2.57;;
50225;SDS011;36113;50.742;6.432;2023-07-31T09:48:46;4.35;;;2.15;;
50225;SDS011;36113;50.742;6.432;2023-07-31T09:51:11;2.83;;;1.90;;
50225;SDS011;36113;50.742;6.432;2023-07-31T09:53:37;3.10;;;1.90;;
50225;SDS011;36113;50.742;6.432;2023-07-31T09:56:02;5.47;;;2.07;;
50225;SDS011;36113;50.742;6.432;2023-07-31T09:58:29;4.82;;;2.00;;
50225;SDS011;36113;50.742;6.432;2023-07-31T10:00:59;3.35;;;1.85;;
50225;SDS011;36113;50.742;6.432;2023-07-31T10:03:26;2.03;;;1.83;;
50225;SDS011;36113;50.742;6.432;2023-07-31T10:05:55;4.00;;;1.83;;
50225;SDS011;36113;50.742;6.432;2023-07-31T10:08:22;4.30;;;1.80;;
50225;SDS011;36113;50.742;6.432;2023-07-31T10:10:54;3.55;;;2.20;;
50225;SDS011;36113;50.742;6.432;2023-07-31T10:13:24;2.70;;;1.60;;
50225;SDS011;36113;50.742;6.432;2023-07-31T10:15:52;3.15;;;1.60;;
50225;SDS011;36113;50.742;6.432;2023-07-31T10:18:18;2.13;;;1.65;;
50225;SDS011;36113;50.742;6.432;2023-07-31T10:20:45;2.85;;;1.30;;
50225;SDS011;36113;50.742;6.432;2023-07-31T10:23:11;2.25;;;1.50;;
50225;SDS011;36113;50.742;6.432;2023-07-31T10:25:38;1.70;;;1.40;;
50225;SDS011;36113;50.742;6.432;2023-07-31T10:28:03;1.53;;;1.43;;
50225;SDS011;36113;50.742;6.432;2023-07-31T10:30:29;2.63;;;1.73;;
50225;SDS011;36113;50.742;6.432;2023-07-31T10:32:56;3.72;;;1.38;;
50225;SDS011;36113;50.742;6.432;2023-07-31T10:35:22;4.57;;;1.42;;
50225;SDS011;36113;50.742;6.432;2023-07-31T10:37:48;2.00;;;1.23;;
50225;SDS011;36113;50.742;6.432;2023-07-31T10:40:16;2.83;;;1.20;;
50225;SDS011;36113;50.742;6.432;2023-07-31T10:42:47;2.17;;;1.35;;
50225;SDS011;36113;50.742;6.432;2023-07-31T10:45:14;3.65;;;1.20;;
50225;SDS011;36113;50.742;6.432;2023-07-31T10:50:23;0.90;;;0.90;;
50225;SDS011;36113;50.742;6.432;2023-07-31T10:52:52;4.00;;;1.55;;
50225;SDS011;36113;50.742;6.432;2023-07-31T10:55:32;1.30;;;1.20;;
50225;SDS011;36113;50.742;6.432;2023-07-31T10:58:07;2.33;;;1.00;;
50225;SDS011;36113;50.742;6.432;2023-07-31T11:00:38;1.30;;;1.20;;
50225;SDS011;36113;50.742;6.432;2023-07-31T11:03:05;1.33;;;1.23;;
50225;SDS011;36113;50.742;6.432;2023-07-31T11:05:52;1.70;;;1.60;;
50225;SDS011;36113;50.742;6.432;2023-07-31T11:08:25;2.08;;;1.13;;
50225;SDS011;36113;50.742;6.432;2023-07-31T11:15:58;0.80;;;0.80;;
50225;SDS011;36113;50.742;6.432;2023-07-31T11:18:23;1.83;;;1.03;;
50225;SDS011;36113;50.742;6.432;2023-07-31T11:20:49;0.70;;;0.70;;
50225;SDS011;36113;50.742;6.432;2023-07-31T11:23:16;0.73;;;0.60;;
50225;SDS011;36113;50.742;6.432;2023-07-31T11:25:44;0.80;;;0.80;;
50225;SDS011;36113;50.742;6.432;2023-07-31T11:28:10;0.60;;;0.60;;
50225;SDS011;36113;50.742;6.432;2023-07-31T11:30:37;0.52;;;0.52;;
50225;SDS011;36113;50.742;6.432;2023-07-31T11:33:04;0.68;;;0.65;;
50225;SDS011;36113;50.742;6.432;2023-07-31T11:35:31;0.85;;;0.85;;
50225;SDS011;36113;50.742;6.432;2023-07-31T11:38:00;3.80;;;0.98;;
50225;SDS011;36113;50.742;6.432;2023-07-31T11:40:26;0.80;;;0.80;;
50225;SDS011;36113;50.742;6.432;2023-07-31T11:42:57;1.02;;;0.93;;
50225;SDS011;36113;50.742;6.432;2023-07-31T11:45:26;1.75;;;1.30;;
50225;SDS011;36113;50.742;6.432;2023-07-31T11:47:53;2.88;;;1.45;;
50225;SDS011;36113;50.742;6.432;2023-07-31T11:50:19;1.33;;;1.10;;
50225;SDS011;36113;50.742;6.432;2023-07-31T11:52:45;2.33;;;1.50;;
50225;SDS011;36113;50.742;6.432;2023-07-31T11:55:13;2.83;;;1.63;;
50225;SDS011;36113;50.742;6.432;2023-07-31T11:57:40;1.52;;;1.42;;
50225;SDS011;36113;50.742;6.432;2023-07-31T12:00:09;1.60;;;1.50;;
50225;SDS011;36113;50.742;6.432;2023-07-31T12:02:38;1.77;;;1.63;;
50225;SDS011;36113;50.742;6.432;2023-07-31T12:05:10;2.22;;;1.95;;
50225;SDS011;36113;50.742;6.432;2023-07-31T12:07:44;2.67;;;1.52;;
50225;SDS011;36113;50.742;6.432;2023-07-31T12:10:10;2.72;;;1.70;;
50225;SDS011;36113;50.742;6.432;2023-07-31T12:12:35;1.73;;;1.63;;
50225;SDS011;36113;50.742;6.432;2023-07-31T12:15:00;2.13;;;1.80;;
50225;SDS011;36113;50.742;6.432;2023-07-31T12:17:26;3.07;;;2.37;;
50225;SDS011;36113;50.742;6.432;2023-07-31T12:19:51;2.60;;;2.40;;
50225;SDS011;36113;50.742;6.432;2023-07-31T12:22:16;2.10;;;1.90;;
50225;SDS011;36113;50.742;6.432;2023-07-31T12:24:42;2.37;;;2.27;;
50225;SDS011;36113;50.742;6.432;2023-07-31T12:27:12;2.50;;;2.30;;
50225;SDS011;36113;50.742;6.432;2023-07-31T12:29:39;3.08;;;2.50;;
50225;SDS011;36113;50.742;6.432;2023-07-31T12:32:23;3.33;;;2.30;;
50225;SDS011;36113;50.742;6.432;2023-07-31T12:34:50;3.60;;;2.58;;
50225;SDS011;36113;50.742;6.432;2023-07-31T12:37:15;2.75;;;2.42;;
50225;SDS011;36113;50.742;6.432;2023-07-31T12:39:41;3.03;;;2.20;;
50225;SDS011;36113;50.742;6.432;2023-07-31T12:42:07;2.37;;;2.17;;
50225;SDS011;36113;50.742;6.432;2023-07-31T12:44:32;3.63;;;2.23;;
50225;SDS011;36113;50.742;6.432;2023-07-31T12:46:57;3.90;;;2.40;;
50225;SDS011;36113;50.742;6.432;2023-07-31T12:49:22;3.90;;;2.33;;
50225;SDS011;36113;50.742;6.432;2023-07-31T12:51:48;3.23;;;2.00;;
50225;SDS011;36113;50.742;6.432;2023-07-31T12:54:13;2.30;;;2.00;;
50225;SDS011;36113;50.742;6.432;2023-07-31T12:56:39;2.13;;;1.97;;
50225;SDS011;36113;50.742;6.432;2023-07-31T12:59:05;3.13;;;1.80;;
50225;SDS011;36113;50.742;6.432;2023-07-31T13:01:31;2.00;;;1.90;;
50225;SDS011;36113;50.742;6.432;2023-07-31T13:03:56;3.77;;;2.30;;
50225;SDS011;36113;50.742;6.432;2023-07-31T13:06:22;2.20;;;2.00;;
50225;SDS011;36113;50.742;6.432;2023-07-31T13:08:47;2.23;;;2.03;;
50225;SDS011;36113;50.742;6.432;2023-07-31T13:11:13;2.00;;;1.87;;
50225;SDS011;36113;50.742;6.432;2023-07-31T13:13:38;1.90;;;1.80;;
50225;SDS011;36113;50.742;6.432;2023-07-31T13:16:03;2.63;;;2.10;;
50225;SDS011;36113;50.742;6.432;2023-07-31T13:18:29;2.67;;;1.87;;
50225;SDS011;36113;50.742;6.432;2023-07-31T13:20:54;2.03;;;1.90;;
50225;SDS011;36113;50.742;6.432;2023-07-31T13:23:19;2.97;;;2.03;;
50225;SDS011;36113;50.742;6.432;2023-07-31T13:25:45;2.17;;;1.97;;
50225;SDS011;36113;50.742;6.432;2023-07-31T13:28:10;2.63;;;2.33;;
50225;SDS011;36113;50.742;6.432;2023-07-31T13:30:35;2.53;;;1.83;;
50225;SDS011;36113;50.742;6.432;2023-07-31T13:33:01;2.13;;;1.87;;
50225;SDS011;36113;50.742;6.432;2023-07-31T13:35:27;3.67;;;2.28;;
50225;SDS011;36113;50.742;6.432;2023-07-31T13:37:53;2.40;;;2.10;;
50225;SDS011;36113;50.742;6.432;2023-07-31T13:40:18;2.73;;;2.03;;
50225;SDS011;36113;50.742;6.432;2023-07-31T13:42:43;1.83;;;1.70;;
50225;SDS011;36113;50.742;6.432;2023-07-31T13:45:08;2.30;;;2.10;;
50225;SDS011;36113;50.742;6.432;2023-07-31T13:47:34;2.80;;;2.60;;
50225;SDS011;36113;50.742;6.432;2023-07-31T13:49:59;4.20;;;2.67;;
50225;SDS011;36113;50.742;6.432;2023-07-31T13:52:25;2.37;;;2.23;;
50225;SDS011;36113;50.742;6.432;2023-07-31T13:54:50;3.57;;;2.77;;
50225;SDS011;36113;50.742;6.432;2023-07-31T13:57:15;2.87;;;2.30;;
50225;SDS011;36113;50.742;6.432;2023-07-31T13:59:40;2.80;;;2.57;;
50225;SDS011;36113;50.742;6.432;2023-07-31T14:02:06;3.63;;;2.13;;
50225;SDS011;36113;50.742;6.432;2023-07-31T14:04:31;2.60;;;2.40;;
50225;SDS011;36113;50.742;6.432;2023-07-31T14:06:56;2.73;;;2.43;;
50225;SDS011;36113;50.742;6.432;2023-07-31T14:09:22;2.90;;;2.70;;
50225;SDS011;36113;50.742;6.432;2023-07-31T14:11:47;2.57;;;2.33;;
50225;SDS011;36113;50.742;6.432;2023-07-31T14:14:13;3.50;;;2.83;;
50225;SDS011;36113;50.742;6.432;2023-07-31T14:16:38;2.80;;;2.60;;
50225;SDS011;36113;50.742;6.432;2023-07-31T14:19:04;2.90;;;2.70;;
50225;SDS011;36113;50.742;6.432;2023-07-31T14:21:29;2.97;;;2.53;;
50225;SDS011;36113;50.742;6.432;2023-07-31T14:23:55;3.23;;;2.90;;
50225;SDS011;36113;50.742;6.432;2023-07-31T14:26:20;2.70;;;2.50;;
50225;SDS011;36113;50.742;6.432;2023-07-31T14:28:45;3.83;;;2.93;;
50225;SDS011;36113;50.742;6.432;2023-07-31T14:31:10;3.00;;;2.60;;
50225;SDS011;36113;50.742;6.432;2023-07-31T14:33:36;4.10;;;3.00;;
50225;SDS011;36113;50.742;6.432;2023-07-31T14:36:01;2.90;;;2.70;;
50225;SDS011;36113;50.742;6.432;2023-07-31T14:38:27;2.57;;;2.37;;
50225;SDS011;36113;50.742;6.432;2023-07-31T14:40:52;5.77;;;3.10;;
50225;SDS011;36113;50.742;6.432;2023-07-31T14:43:18;6.77;;;2.63;;
50225;SDS011;36113;50.742;6.432;2023-07-31T14:45:43;3.87;;;3.53;;
50225;SDS011;36113;50.742;6.432;2023-07-31T14:48:08;4.77;;;3.40;;
50225;SDS011;36113;50.742;6.432;2023-07-31T14:50:34;3.10;;;2.80;;
50225;SDS011;36113;50.742;6.432;2023-07-31T14:52:59;3.00;;;2.80;;
50225;SDS011;36113;50.742;6.432;2023-07-31T14:55:25;3.57;;;3.23;;
50225;SDS011;36113;50.742;6.432;2023-07-31T14:57:50;4.17;;;2.97;;